sensor_id;sensor_type;location;lat;lon;timestamp;pressure;altitude;pressure_sealevel;temperature;humidity
71764;BME280;59602;52.142;5.408;2023-02-03T00:02:06;102566.66;;;8.70;91.94
71764;BME280;59602;52.142;5.408;2023-02-03T00:04:33;102577.84;;;8.68;91.94
71764;BME280;59602;52.142;5.408;2023-02-03T00:06:59;102586.44;;;8.70;91.61
71764;BME280;59602;52.142;5.408;2023-02-03T00:09:26;102582.94;;;8.70;91.71
71764;BME280;59602;52.142;5.408;2023-02-03T00:11:53;102596.19;;;8.71;91.45
71764;BME280;59602;52.142;5.408;2023-02-03T00:14:19;102595.41;;;8.71;91.65
71764;BME280;59602;52.142;5.408;2023-02-03T00:16:46;102588.06;;;8.71;91.67
71764;BME280;59602;52.142;5.408;2023-02-03T00:19:13;102592.34;;;8.72;91.36
71764;BME280;59602;52.142;5.408;2023-02-03T00:21:42;102580.72;;;8.72;91.70
71764;BME280;59602;52.142;5.408;2023-02-03T00:24:09;102581.84;;;8.71;91.51
71764;BME280;59602;52.142;5.408;2023-02-03T00:26:40;102593.94;;;8.73;91.24
71764;BME280;59602;52.142;5.408;2023-02-03T00:29:06;102594.75;;;8.74;91.15
71764;BME280;59602;52.142;5.408;2023-02-03T00:31:34;102604.47;;;8.75;90.98
71764;BME280;59602;52.142;5.408;2023-02-03T00:34:01;102602.56;;;8.76;91.06
71764;BME280;59602;52.142;5.408;2023-02-03T00:36:27;102589.78;;;8.76;90.76
71764;BME280;59602;52.142;5.408;2023-02-03T00:38:54;102601.44;;;8.77;90.55
71764;BME280;59602;52.142;5.408;2023-02-03T00:41:20;102605.75;;;8.78;90.50
71764;BME280;59602;52.142;5.408;2023-02-03T00:43:48;102594.91;;;8.78;90.55
71764;BME280;59602;52.142;5.408;2023-02-03T00:46:15;102598.72;;;8.77;90.28
71764;BME280;59602;52.142;5.408;2023-02-03T00:48:41;102595.38;;;8.80;90.20
71764;BME280;59602;52.142;5.408;2023-02-03T00:51:08;102598.41;;;8.78;90.06
71764;BME280;59602;52.142;5.408;2023-02-03T00:53:35;102604.94;;;8.77;90.10
71764;BME280;59602;52.142;5.408;2023-02-03T00:56:01;102597.63;;;8.78;89.94
71764;BME280;59602;52.142;5.408;2023-02-03T00:58:28;102594.56;;;8.79;89.85
71764;BME280;59602;52.142;5.408;2023-02-03T01:00:55;102601.13;;;8.78;90.07
71764;BME280;59602;52.142;5.408;2023-02-03T01:03:22;102590.28;;;8.78;89.91
71764;BME280;59602;52.142;5.408;2023-02-03T01:05:49;102585.94;;;8.77;89.63
71764;BME280;59602;52.142;5.408;2023-02-03T01:08:15;102584.38;;;8.76;90.16
71764;BME280;59602;52.142;5.408;2023-02-03T01:10:42;102580.53;;;8.77;89.65
71764;BME280;59602;52.142;5.408;2023-02-03T01:13:08;102585.16;;;8.77;89.71
71764;BME280;59602;52.142;5.408;2023-02-03T01:15:35;102590.59;;;8.77;89.72
71764;BME280;59602;52.142;5.408;2023-02-03T01:18:02;102585.16;;;8.77;89.38
71764;BME280;59602;52.142;5.408;2023-02-03T01:20:29;102590.59;;;8.77;89.60
71764;BME280;59602;52.142;5.408;2023-02-03T01:22:56;102589.78;;;8.76;89.49
71764;BME280;59602;52.142;5.408;2023-02-03T01:25:22;102596.31;;;8.75;89.62
71764;BME280;59602;52.142;5.408;2023-02-03T01:27:49;102572.72;;;8.76;89.61
71764;BME280;59602;52.142;5.408;2023-02-03T01:30:16;102569.53;;;8.73;89.43
71764;BME280;59602;52.142;5.408;2023-02-03T01:32:42;102542.44;;;8.73;89.34
71764;BME280;59602;52.142;5.408;2023-02-03T01:35:09;102540.03;;;8.72;89.40
71764;BME280;59602;52.142;5.408;2023-02-03T01:37:35;102536.22;;;8.73;89.48
71764;BME280;59602;52.142;5.408;2023-02-03T01:40:02;102544.34;;;8.73;89.75
71764;BME280;59602;52.142;5.408;2023-02-03T01:42:31;102539.72;;;8.73;89.21
71764;BME280;59602;52.142;5.408;2023-02-03T01:44:59;102541.63;;;8.73;89.57
71764;BME280;59602;52.142;5.408;2023-02-03T01:47:35;102534.59;;;8.72;89.30
71764;BME280;59602;52.142;5.408;2023-02-03T01:50:13;102554.38;;;8.72;88.97
71764;BME280;59602;52.142;5.408;2023-02-03T01:52:42;102557.91;;;8.73;89.06
71764;BME280;59602;52.142;5.408;2023-02-03T01:55:13;102560.16;;;8.71;88.98
71764;BME280;59602;52.142;5.408;2023-02-03T01:57:46;102535.75;;;8.71;89.43
71764;BME280;59602;52.142;5.408;2023-02-03T02:00:14;102529.50;;;8.70;89.28
71764;BME280;59602;52.142;5.408;2023-02-03T02:02:44;102524.06;;;8.70;89.28
71764;BME280;59602;52.142;5.408;2023-02-03T02:05:26;102511.34;;;8.71;88.77
71764;BME280;59602;52.142;5.408;2023-02-03T02:07:55;102518.66;;;8.70;88.67
71764;BME280;59602;52.142;5.408;2023-02-03T02:10:23;102501.28;;;8.71;88.42
71764;BME280;59602;52.142;5.408;2023-02-03T02:12:51;102513.38;;;8.74;88.35
71764;BME280;59602;52.142;5.408;2023-02-03T02:15:22;102520.38;;;8.75;88.26
71764;BME280;59602;52.142;5.408;2023-02-03T02:20:50;102539.72;;;8.73;88.53
71764;BME280;59602;52.142;5.408;2023-02-03T02:32:11;102533.16;;;8.75;88.11
71764;BME280;59602;52.142;5.408;2023-02-03T02:37:34;102525.81;;;8.75;88.06
71764;BME280;59602;52.142;5.408;2023-02-03T02:45:29;102533.16;;;8.75;87.46
71764;BME280;59602;52.142;5.408;2023-02-03T02:48:04;102525.81;;;8.75;87.81
71764;BME280;59602;52.142;5.408;2023-02-03T02:50:37;102521.69;;;8.78;87.55
71764;BME280;59602;52.142;5.408;2023-02-03T02:53:06;102507.78;;;8.79;87.52
71764;BME280;59602;52.142;5.408;2023-02-03T02:55:36;102512.41;;;8.79;87.62
71764;BME280;59602;52.142;5.408;2023-02-03T02:58:08;102506.97;;;8.79;87.08
71764;BME280;59602;52.142;5.408;2023-02-03T03:00:36;102507.78;;;8.79;87.12
71764;BME280;59602;52.142;5.408;2023-02-03T03:03:15;102494.22;;;8.79;87.16
71764;BME280;59602;52.142;5.408;2023-02-03T03:05:46;102483.84;;;8.81;86.71
71764;BME280;59602;52.142;5.408;2023-02-03T03:08:15;102478.88;;;8.83;86.56
71764;BME280;59602;52.142;5.408;2023-02-03T03:10:44;102499.59;;;8.88;85.99
71764;BME280;59602;52.142;5.408;2023-02-03T03:13:15;102501.22;;;8.89;86.19
71764;BME280;59602;52.142;5.408;2023-02-03T03:15:44;102504.72;;;8.89;86.21
71764;BME280;59602;52.142;5.408;2023-02-03T03:18:16;102498.16;;;8.90;85.68
71764;BME280;59602;52.142;5.408;2023-02-03T03:20:46;102498.31;;;8.94;85.76
71764;BME280;59602;52.142;5.408;2023-02-03T03:23:26;102485.06;;;8.92;85.70
71764;BME280;59602;52.142;5.408;2023-02-03T03:25:59;102488.72;;;8.97;85.41
71764;BME280;59602;52.142;5.408;2023-02-03T03:28:36;102491.41;;;8.97;85.68
71764;BME280;59602;52.142;5.408;2023-02-03T03:31:07;102489.84;;;8.96;85.97
71764;BME280;59602;52.142;5.408;2023-02-03T03:33:34;102503.41;;;8.96;85.81
71764;BME280;59602;52.142;5.408;2023-02-03T03:36:07;102497.97;;;8.96;85.58
71764;BME280;59602;52.142;5.408;2023-02-03T03:38:41;102516.97;;;8.96;85.68
71764;BME280;59602;52.142;5.408;2023-02-03T03:41:20;102513.13;;;8.97;85.51
71764;BME280;59602;52.142;5.408;2023-02-03T03:43:51;102505.00;;;8.97;85.88
71764;BME280;59602;52.142;5.408;2023-02-03T03:46:26;102503.88;;;8.98;85.88
71764;BME280;59602;52.142;5.408;2023-02-03T03:48:59;102515.84;;;8.97;85.56
71764;BME280;59602;52.142;5.408;2023-02-03T03:51:31;102522.88;;;8.98;85.48
71764;BME280;59602;52.142;5.408;2023-02-03T03:54:04;102528.28;;;8.98;85.41
71764;BME280;59602;52.142;5.408;2023-02-03T03:56:39;102535.31;;;8.99;85.72
71764;BME280;59602;52.142;5.408;2023-02-03T03:59:07;102543.91;;;9.01;85.73
71764;BME280;59602;52.142;5.408;2023-02-03T04:01:37;102535.78;;;9.01;85.66
71764;BME280;59602;52.142;5.408;2023-02-03T04:04:07;102524.13;;;9.00;85.55
71764;BME280;59602;52.142;5.408;2023-02-03T04:06:38;102526.84;;;9.00;85.64
71764;BME280;59602;52.142;5.408;2023-02-03T04:09:05;102526.50;;;9.02;85.50
71764;BME280;59602;52.142;5.408;2023-02-03T04:11:32;102529.22;;;9.02;85.54
71764;BME280;59602;52.142;5.408;2023-02-03T04:14:17;102521.53;;;9.04;85.46
71764;BME280;59602;52.142;5.408;2023-02-03T04:16:44;102512.28;;;9.05;85.18
71764;BME280;59602;52.142;5.408;2023-02-03T04:19:10;102526.34;;;9.07;85.22
71764;BME280;59602;52.142;5.408;2023-02-03T04:21:37;102530.31;;;9.09;84.55
71764;BME280;59602;52.142;5.408;2023-02-03T04:24:04;102531.56;;;9.12;84.73
71764;BME280;59602;52.142;5.408;2023-02-03T04:26:30;102517.69;;;9.13;84.64
71764;BME280;59602;52.142;5.408;2023-02-03T04:28:57;102520.88;;;9.16;84.37
71764;BME280;59602;52.142;5.408;2023-02-03T04:31:23;102528.34;;;9.19;84.19
71764;BME280;59602;52.142;5.408;2023-02-03T04:33:50;102531.84;;;9.19;84.39
71764;BME280;59602;52.142;5.408;2023-02-03T04:36:17;102514.09;;;9.22;83.92
71764;BME280;59602;52.142;5.408;2023-02-03T04:38:43;102517.28;;;9.24;84.15
71764;BME280;59602;52.142;5.408;2023-02-03T04:41:10;102511.06;;;9.23;83.82
71764;BME280;59602;52.142;5.408;2023-02-03T04:43:36;102518.53;;;9.26;83.88
71764;BME280;59602;52.142;5.408;2023-02-03T04:46:03;102516.97;;;9.25;83.90
71764;BME280;59602;52.142;5.408;2023-02-03T04:48:30;102532.13;;;9.26;83.75
71764;BME280;59602;52.142;5.408;2023-02-03T04:51:02;102522.06;;;9.27;84.09
71764;BME280;59602;52.142;5.408;2023-02-03T04:53:29;102522.88;;;9.27;84.09
71764;BME280;59602;52.142;5.408;2023-02-03T04:55:56;102509.97;;;9.24;84.39
71764;BME280;59602;52.142;5.408;2023-02-03T04:58:23;102511.53;;;9.25;84.24
71764;BME280;59602;52.142;5.408;2023-02-03T05:00:52;102522.38;;;9.25;84.26
71764;BME280;59602;52.142;5.408;2023-02-03T05:03:19;102509.63;;;9.26;84.28
71764;BME280;59602;52.142;5.408;2023-02-03T05:05:48;102514.25;;;9.25;84.55
71764;BME280;59602;52.142;5.408;2023-02-03T05:08:15;102511.53;;;9.25;84.09
71764;BME280;59602;52.142;5.408;2023-02-03T05:10:41;102500.69;;;9.25;84.38
71764;BME280;59602;52.142;5.408;2023-02-03T05:13:07;102517.44;;;9.27;84.35
71764;BME280;59602;52.142;5.408;2023-02-03T05:15:34;102509.28;;;9.27;84.59
71764;BME280;59602;52.142;5.408;2023-02-03T05:18:01;102515.81;;;9.26;84.58
71764;BME280;59602;52.142;5.408;2023-02-03T05:20:27;102521.25;;;9.26;84.61
71764;BME280;59602;52.142;5.408;2023-02-03T05:22:54;102523.19;;;9.26;84.58
71764;BME280;59602;52.142;5.408;2023-02-03T05:25:21;102518.53;;;9.26;84.42
71764;BME280;59602;52.142;5.408;2023-02-03T05:27:47;102521.25;;;9.26;84.06
71764;BME280;59602;52.142;5.408;2023-02-03T05:30:14;102521.25;;;9.26;84.40
71764;BME280;59602;52.142;5.408;2023-02-03T05:32:41;102513.13;;;9.26;84.46
71764;BME280;59602;52.142;5.408;2023-02-03T05:35:07;102520.47;;;9.26;84.41
71764;BME280;59602;52.142;5.408;2023-02-03T05:37:34;102528.28;;;9.27;84.36
71764;BME280;59602;52.142;5.408;2023-02-03T05:40:02;102509.63;;;9.26;84.67
71764;BME280;59602;52.142;5.408;2023-02-03T05:42:47;102516.97;;;9.25;84.92
71764;BME280;59602;52.142;5.408;2023-02-03T05:45:15;102526.25;;;9.24;84.82
71764;BME280;59602;52.142;5.408;2023-02-03T05:47:41;102516.19;;;9.25;84.52
71764;BME280;59602;52.142;5.408;2023-02-03T05:50:08;102527.34;;;9.23;84.50
71764;BME280;59602;52.142;5.408;2023-02-03T05:52:35;102519.22;;;9.23;84.99
71764;BME280;59602;52.142;5.408;2023-02-03T05:55:02;102520.34;;;9.22;84.80
71764;BME280;59602;52.142;5.408;2023-02-03T05:57:28;102516.50;;;9.23;84.78
71764;BME280;59602;52.142;5.408;2023-02-03T05:59:57;102510.59;;;9.21;84.92
71764;BME280;59602;52.142;5.408;2023-02-03T06:02:24;102511.38;;;9.22;84.59
71764;BME280;59602;52.142;5.408;2023-02-03T06:04:50;102517.63;;;9.22;84.73
71764;BME280;59602;52.142;5.408;2023-02-03T06:07:17;102515.72;;;9.23;84.72
71764;BME280;59602;52.142;5.408;2023-02-03T06:09:43;102516.81;;;9.22;84.99
71764;BME280;59602;52.142;5.408;2023-02-03T06:12:10;102526.88;;;9.21;85.04
71764;BME280;59602;52.142;5.408;2023-02-03T06:14:37;102508.66;;;9.22;84.67
71764;BME280;59602;52.142;5.408;2023-02-03T06:17:03;102511.38;;;9.22;85.31
71764;BME280;59602;52.142;5.408;2023-02-03T06:19:30;102523.38;;;9.21;84.85
71764;BME280;59602;52.142;5.408;2023-02-03T06:21:57;102510.59;;;9.21;84.85
71764;BME280;59602;52.142;5.408;2023-02-03T06:24:23;102516.03;;;9.21;85.13
71764;BME280;59602;52.142;5.408;2023-02-03T06:26:50;102535.34;;;9.20;84.71
71764;BME280;59602;52.142;5.408;2023-02-03T06:29:16;102532.63;;;9.20;84.99
71764;BME280;59602;52.142;5.408;2023-02-03T06:31:43;102522.59;;;9.20;85.43
71764;BME280;59602;52.142;5.408;2023-02-03T06:34:10;102519.41;;;9.18;85.07
71764;BME280;59602;52.142;5.408;2023-02-03T06:36:36;102530.72;;;9.20;85.04
71764;BME280;59602;52.142;5.408;2023-02-03T06:39:03;102518.28;;;9.19;85.16
71764;BME280;59602;52.142;5.408;2023-02-03T06:41:29;102531.53;;;9.21;85.22
71764;BME280;59602;52.142;5.408;2023-02-03T06:43:58;102533.44;;;9.20;85.05
71764;BME280;59602;52.142;5.408;2023-02-03T06:46:24;102524.16;;;9.21;85.09
71764;BME280;59602;52.142;5.408;2023-02-03T06:48:55;102529.91;;;9.20;84.99
71764;BME280;59602;52.142;5.408;2023-02-03T06:51:21;102541.13;;;9.18;85.62
71764;BME280;59602;52.142;5.408;2023-02-03T06:53:50;102552.75;;;9.19;85.50
71764;BME280;59602;52.142;5.408;2023-02-03T06:56:17;102539.19;;;9.19;85.01
71764;BME280;59602;52.142;5.408;2023-02-03T06:58:43;102545.75;;;9.18;85.43
71764;BME280;59602;52.142;5.408;2023-02-03T07:01:10;102562.47;;;9.20;85.81
71764;BME280;59602;52.142;5.408;2023-02-03T07:03:37;102559.31;;;9.18;85.73
71764;BME280;59602;52.142;5.408;2023-02-03T07:06:04;102560.44;;;9.17;85.34
71764;BME280;59602;52.142;5.408;2023-02-03T07:08:30;102574.00;;;9.17;85.46
71764;BME280;59602;52.142;5.408;2023-02-03T07:10:57;102577.84;;;9.16;85.49
71764;BME280;59602;52.142;5.408;2023-02-03T07:13:23;102571.28;;;9.17;85.93
71764;BME280;59602;52.142;5.408;2023-02-03T07:15:50;102577.03;;;9.15;85.96
71764;BME280;59602;52.142;5.408;2023-02-03T07:18:17;102566.19;;;9.15;85.62
71764;BME280;59602;52.142;5.408;2023-02-03T07:21:05;102581.66;;;9.14;85.57
71764;BME280;59602;52.142;5.408;2023-02-03T07:23:32;102572.41;;;9.16;85.59
71764;BME280;59602;52.142;5.408;2023-02-03T07:26:02;102570.81;;;9.14;85.63
71764;BME280;59602;52.142;5.408;2023-02-03T07:28:31;102572.41;;;9.16;85.77
71764;BME280;59602;52.142;5.408;2023-02-03T07:30:58;102586.00;;;9.16;85.60
71764;BME280;59602;52.142;5.408;2023-02-03T07:33:26;102593.31;;;9.15;85.91
71764;BME280;59602;52.142;5.408;2023-02-03T07:35:54;102587.88;;;9.15;85.94
71764;BME280;59602;52.142;5.408;2023-02-03T07:38:23;102585.19;;;9.15;86.06
71764;BME280;59602;52.142;5.408;2023-02-03T07:40:51;102582.47;;;9.15;86.18
71764;BME280;59602;52.142;5.408;2023-02-03T07:43:18;102570.03;;;9.14;86.13
71764;BME280;59602;52.142;5.408;2023-02-03T07:45:45;102569.25;;;9.13;86.23
71764;BME280;59602;52.142;5.408;2023-02-03T07:48:11;102580.88;;;9.14;86.29
71764;BME280;59602;52.142;5.408;2023-02-03T07:50:39;102579.75;;;9.15;86.52
71764;BME280;59602;52.142;5.408;2023-02-03T07:53:06;102593.00;;;9.17;86.48
71764;BME280;59602;52.142;5.408;2023-02-03T07:55:37;102595.72;;;9.17;86.66
71764;BME280;59602;52.142;5.408;2023-02-03T07:58:04;102594.59;;;9.18;86.43
71764;BME280;59602;52.142;5.408;2023-02-03T08:00:32;102586.47;;;9.18;86.58
71764;BME280;59602;52.142;5.408;2023-02-03T08:02:58;102593.47;;;9.19;86.80
71764;BME280;59602;52.142;5.408;2023-02-03T08:05:25;102587.72;;;9.20;86.56
71764;BME280;59602;52.142;5.408;2023-02-03T08:07:51;102588.50;;;9.21;86.72
71764;BME280;59602;52.142;5.408;2023-02-03T08:10:18;102599.06;;;9.22;86.72
71764;BME280;59602;52.142;5.408;2023-02-03T08:12:45;102600.94;;;9.22;86.77
71764;BME280;59602;52.142;5.408;2023-02-03T08:15:13;102610.69;;;9.23;86.82
71764;BME280;59602;52.142;5.408;2023-02-03T08:17:39;102606.06;;;9.23;86.75
71764;BME280;59602;52.142;5.408;2023-02-03T08:20:08;102617.72;;;9.24;86.67
71764;BME280;59602;52.142;5.408;2023-02-03T08:22:35;102615.81;;;9.24;86.88
71764;BME280;59602;52.142;5.408;2023-02-03T08:25:02;102623.59;;;9.26;86.81
71764;BME280;59602;52.142;5.408;2023-02-03T08:27:30;102622.16;;;9.28;86.74
71764;BME280;59602;52.142;5.408;2023-02-03T08:29:57;102625.34;;;9.30;86.67
71764;BME280;59602;52.142;5.408;2023-02-03T08:32:24;102630.47;;;9.32;86.62
71764;BME280;59602;52.142;5.408;2023-02-03T08:34:53;102635.09;;;9.31;86.94
71764;BME280;59602;52.142;5.408;2023-02-03T08:37:22;102633.16;;;9.32;86.95
71764;BME280;59602;52.142;5.408;2023-02-03T08:39:50;102635.56;;;9.33;86.97
71764;BME280;59602;52.142;5.408;2023-02-03T08:42:17;102622.00;;;9.33;86.95
71764;BME280;59602;52.142;5.408;2023-02-03T08:44:45;102634.44;;;9.34;86.94
71764;BME280;59602;52.142;5.408;2023-02-03T08:47:11;102641.47;;;9.35;87.11
71764;BME280;59602;52.142;5.408;2023-02-03T08:49:38;102656.31;;;9.38;87.16
71764;BME280;59602;52.142;5.408;2023-02-03T08:52:06;102648.94;;;9.39;86.94
71764;BME280;59602;52.142;5.408;2023-02-03T08:54:34;102642.38;;;9.40;86.58
71764;BME280;59602;52.142;5.408;2023-02-03T08:57:00;102642.06;;;9.41;86.96
71764;BME280;59602;52.142;5.408;2023-02-03T08:59:27;102663.47;;;9.43;87.01
71764;BME280;59602;52.142;5.408;2023-02-03T09:01:54;102647.66;;;9.45;86.73
71764;BME280;59602;52.142;5.408;2023-02-03T09:04:21;102650.84;;;9.47;87.17
71764;BME280;59602;52.142;5.408;2023-02-03T09:06:51;102650.50;;;9.48;87.09
71764;BME280;59602;52.142;5.408;2023-02-03T09:09:20;102652.88;;;9.50;87.05
71764;BME280;59602;52.142;5.408;2023-02-03T09:11:48;102649.03;;;9.51;86.97
71764;BME280;59602;52.142;5.408;2023-02-03T09:14:14;102677.47;;;9.53;86.64
71764;BME280;59602;52.142;5.408;2023-02-03T09:16:41;102661.97;;;9.54;86.72
71764;BME280;59602;52.142;5.408;2023-02-03T09:19:08;102663.56;;;9.55;86.78
71764;BME280;59602;52.142;5.408;2023-02-03T09:21:35;102661.66;;;9.55;86.68
71764;BME280;59602;52.142;5.408;2023-02-03T09:24:06;102672.97;;;9.57;86.84
71764;BME280;59602;52.142;5.408;2023-02-03T09:26:34;102659.06;;;9.59;86.73
71764;BME280;59602;52.142;5.408;2023-02-03T09:29:00;102667.22;;;9.59;86.67
71764;BME280;59602;52.142;5.408;2023-02-03T09:31:27;102661.13;;;9.62;86.39
71764;BME280;59602;52.142;5.408;2023-02-03T09:33:54;102670.88;;;9.63;86.55
71764;BME280;59602;52.142;5.408;2023-02-03T09:36:20;102681.41;;;9.65;86.64
71764;BME280;59602;52.142;5.408;2023-02-03T09:38:47;102666.69;;;9.66;86.48
71764;BME280;59602;52.142;5.408;2023-02-03T09:44:13;102671.03;;;9.67;86.18
71764;BME280;59602;52.142;5.408;2023-02-03T09:46:48;102683.47;;;9.68;86.36
71764;BME280;59602;52.142;5.408;2023-02-03T09:51:51;102702.97;;;9.70;86.72
71764;BME280;59602;52.142;5.408;2023-02-03T09:54:26;102684.72;;;9.70;85.93
71764;BME280;59602;52.142;5.408;2023-02-03T09:56:56;102681.69;;;9.72;86.44
71764;BME280;59602;52.142;5.408;2023-02-03T09:59:54;102689.53;;;9.73;86.42
71764;BME280;59602;52.142;5.408;2023-02-03T10:02:46;102680.72;;;9.76;86.08
71764;BME280;59602;52.142;5.408;2023-02-03T10:05:45;102699.41;;;9.78;85.92
71764;BME280;59602;52.142;5.408;2023-02-03T10:08:28;102701.47;;;9.81;85.81
71764;BME280;59602;52.142;5.408;2023-02-03T10:11:20;102701.78;;;9.80;85.98
71764;BME280;59602;52.142;5.408;2023-02-03T10:14:11;102692.53;;;9.81;86.05
71764;BME280;59602;52.142;5.408;2023-02-03T10:19:42;102713.28;;;9.85;85.76
71764;BME280;59602;52.142;5.408;2023-02-03T10:22:25;102703.97;;;9.86;85.88
71764;BME280;59602;52.142;5.408;2023-02-03T10:25:02;102707.50;;;9.87;85.83
71764;BME280;59602;52.142;5.408;2023-02-03T10:34:19;102727.91;;;9.93;85.42
71764;BME280;59602;52.142;5.408;2023-02-03T10:37:16;102729.53;;;9.94;85.30
71764;BME280;59602;52.142;5.408;2023-02-03T10:44:50;102742.75;;;9.95;85.47
71764;BME280;59602;52.142;5.408;2023-02-03T10:47:58;102746.31;;;9.96;85.42
71764;BME280;59602;52.142;5.408;2023-02-03T10:51:01;102738.63;;;9.98;85.76
71764;BME280;59602;52.142;5.408;2023-02-03T10:53:33;102741.00;;;10.00;85.25
71764;BME280;59602;52.142;5.408;2023-02-03T10:56:24;102741.78;;;10.00;85.41
71764;BME280;59602;52.142;5.408;2023-02-03T10:59:32;102732.53;;;10.01;85.29
71764;BME280;59602;52.142;5.408;2023-02-03T11:02:08;102736.81;;;10.02;85.17
71764;BME280;59602;52.142;5.408;2023-02-03T11:04:36;102742.25;;;10.02;85.44
71764;BME280;59602;52.142;5.408;2023-02-03T11:07:05;102752.34;;;10.02;85.24
71764;BME280;59602;52.142;5.408;2023-02-03T11:09:37;102750.09;;;10.04;85.39
71764;BME280;59602;52.142;5.408;2023-02-03T11:12:12;102760.16;;;10.03;85.41
71764;BME280;59602;52.142;5.408;2023-02-03T11:14:42;102762.41;;;10.01;85.63
71764;BME280;59602;52.142;5.408;2023-02-03T11:17:28;102763.19;;;10.02;85.46
71764;BME280;59602;52.142;5.408;2023-02-03T11:20:03;102759.38;;;10.03;85.88
71764;BME280;59602;52.142;5.408;2023-02-03T11:22:39;102767.53;;;10.03;85.66
71764;BME280;59602;52.142;5.408;2023-02-03T11:25:24;102750.75;;;10.01;85.36
71764;BME280;59602;52.142;5.408;2023-02-03T11:27:54;102751.84;;;10.00;85.49
71764;BME280;59602;52.142;5.408;2023-02-03T11:30:25;102751.53;;;10.01;85.47
71764;BME280;59602;52.142;5.408;2023-02-03T11:32:54;102741.47;;;10.02;85.63
71764;BME280;59602;52.142;5.408;2023-02-03T11:35:23;102760.94;;;10.04;85.73
71764;BME280;59602;52.142;5.408;2023-02-03T11:37:52;102747.06;;;10.05;85.06
71764;BME280;59602;52.142;5.408;2023-02-03T11:45:24;102750.03;;;10.12;85.24
71764;BME280;59602;52.142;5.408;2023-02-03T11:53:18;102738.84;;;10.14;85.10
71764;BME280;59602;52.142;5.408;2023-02-03T11:56:03;102737.72;;;10.15;85.76
71764;BME280;59602;52.142;5.408;2023-02-03T11:58:45;102735.00;;;10.15;85.39
71764;BME280;59602;52.142;5.408;2023-02-03T12:06:39;102743.94;;;10.15;85.50
71764;BME280;59602;52.142;5.408;2023-02-03T12:09:28;102738.50;;;10.15;85.49
71764;BME280;59602;52.142;5.408;2023-02-03T12:12:15;102741.88;;;10.12;86.25
71764;BME280;59602;52.142;5.408;2023-02-03T12:22:58;102769.09;;;10.04;86.71
71764;BME280;59602;52.142;5.408;2023-02-03T12:25:32;102768.63;;;10.02;86.76
71764;BME280;59602;52.142;5.408;2023-02-03T12:30:34;102770.41;;;9.97;87.62
71764;BME280;59602;52.142;5.408;2023-02-03T12:33:12;102784.66;;;9.94;87.44
71764;BME280;59602;52.142;5.408;2023-02-03T12:35:49;102795.38;;;9.91;87.97
71764;BME280;59602;52.142;5.408;2023-02-03T12:38:33;102793.31;;;9.88;88.69
71764;BME280;59602;52.142;5.408;2023-02-03T12:41:06;102792.06;;;9.85;88.89
71764;BME280;59602;52.142;5.408;2023-02-03T12:43:41;102798.94;;;9.83;89.18
71764;BME280;59602;52.142;5.408;2023-02-03T12:51:29;102823.41;;;9.74;90.15
71764;BME280;59602;52.142;5.408;2023-02-03T12:54:02;102811.75;;;9.73;90.25
71764;BME280;59602;52.142;5.408;2023-02-03T12:56:38;102825.97;;;9.70;90.15
71764;BME280;59602;52.142;5.408;2023-02-03T12:59:12;102827.91;;;9.70;90.36
71764;BME280;59602;52.142;5.408;2023-02-03T13:01:48;102834.13;;;9.70;90.31
71764;BME280;59602;52.142;5.408;2023-02-03T13:04:33;102834.91;;;9.71;90.49
71764;BME280;59602;52.142;5.408;2023-02-03T13:07:20;102831.09;;;9.72;90.12
71764;BME280;59602;52.142;5.408;2023-02-03T13:09:58;102833.50;;;9.73;90.17
71764;BME280;59602;52.142;5.408;2023-02-03T13:12:29;102831.22;;;9.75;89.87
71764;BME280;59602;52.142;5.408;2023-02-03T13:17:54;102830.59;;;9.79;89.27
71764;BME280;59602;52.142;5.408;2023-02-03T13:20:25;102833.78;;;9.81;89.25
71764;BME280;59602;52.142;5.408;2023-02-03T13:22:54;102833.91;;;9.84;89.20
71764;BME280;59602;52.142;5.408;2023-02-03T13:25:24;102833.91;;;9.84;88.67
71764;BME280;59602;52.142;5.408;2023-02-03T13:28:01;102827.06;;;9.87;87.95
71764;BME280;59602;52.142;5.408;2023-02-03T13:33:24;102831.56;;;9.83;87.50
71764;BME280;59602;52.142;5.408;2023-02-03T13:41:29;102835.06;;;9.83;85.61
71764;BME280;59602;52.142;5.408;2023-02-03T13:44:04;102836.63;;;9.84;85.01
71764;BME280;59602;52.142;5.408;2023-02-03T13:46:34;102830.09;;;9.85;85.19
71764;BME280;59602;52.142;5.408;2023-02-03T13:52:04;102830.88;;;9.86;84.63
71764;BME280;59602;52.142;5.408;2023-02-03T13:54:36;102833.13;;;9.84;84.06
71764;BME280;59602;52.142;5.408;2023-02-03T13:57:22;102844.31;;;9.82;84.08
71764;BME280;59602;52.142;5.408;2023-02-03T13:59:54;102831.88;;;9.81;83.79
71764;BME280;59602;52.142;5.408;2023-02-03T14:05:06;102824.03;;;9.80;83.31
71764;BME280;59602;52.142;5.408;2023-02-03T14:22:58;102862.25;;;9.74;81.37
71764;BME280;59602;52.142;5.408;2023-02-03T14:25:43;102871.19;;;9.75;81.99
71764;BME280;59602;52.142;5.408;2023-02-03T14:28:18;102871.19;;;9.75;81.05
71764;BME280;59602;52.142;5.408;2023-02-03T14:31:02;102879.03;;;9.76;81.24
71764;BME280;59602;52.142;5.408;2023-02-03T14:38:54;102900.44;;;9.69;80.23
71764;BME280;59602;52.142;5.408;2023-02-03T14:41:53;102894.84;;;9.66;80.27
71764;BME280;59602;52.142;5.408;2023-02-03T14:47:04;102890.88;;;9.63;79.79
71764;BME280;59602;52.142;5.408;2023-02-03T14:49:45;102889.25;;;9.62;80.12
71764;BME280;59602;52.142;5.408;2023-02-03T14:52:43;102899.00;;;9.63;80.02
71764;BME280;59602;52.142;5.408;2023-02-03T14:57:59;102896.13;;;9.60;79.04
71764;BME280;59602;52.142;5.408;2023-02-03T15:00:31;102901.09;;;9.57;79.01
71764;BME280;59602;52.142;5.408;2023-02-03T15:07:58;102901.09;;;9.57;78.94
71764;BME280;59602;52.142;5.408;2023-02-03T15:13:21;102890.09;;;9.54;78.77
71764;BME280;59602;52.142;5.408;2023-02-03T15:15:49;102886.88;;;9.52;78.46
71764;BME280;59602;52.142;5.408;2023-02-03T15:18:21;102902.06;;;9.53;78.23
71764;BME280;59602;52.142;5.408;2023-02-03T15:20:52;102895.03;;;9.52;78.57
71764;BME280;59602;52.142;5.408;2023-02-03T15:23:24;102884.19;;;9.52;78.64